createdAt,value
2023-04-29T00:00:12.838Z,16.20
2023-04-29T00:01:14.521Z,16.20
2023-04-29T00:02:16.578Z,16.20
2023-04-29T00:03:20.306Z,16.20
2023-04-29T00:04:22.392Z,16.20
2023-04-29T00:05:24.521Z,16.20
2023-04-29T00:06:26.514Z,16.10
2023-04-29T00:07:28.517Z,16.20
2023-04-29T00:08:30.218Z,16.10
2023-04-29T00:09:32.139Z,16.20
2023-04-29T00:10:33.870Z,16.10
2023-04-29T00:11:35.572Z,16.20
2023-04-29T00:12:37.599Z,16.10
2023-04-29T00:13:42.396Z,16.10
2023-04-29T00:14:44.129Z,16.10
2023-04-29T00:15:46.000Z,16.10
2023-04-29T00:16:48.325Z,16.10
2023-04-29T00:17:51.036Z,16.20
2023-04-29T00:18:53.016Z,16.20
2023-04-29T00:19:55.046Z,16.20
2023-04-29T00:20:56.840Z,16.20
2023-04-29T00:21:58.900Z,16.20
2023-04-29T00:23:01.950Z,16.20
2023-04-29T00:24:03.786Z,16.20
2023-04-29T00:25:06.553Z,16.20
2023-04-29T00:26:08.466Z,16.10
2023-04-29T00:27:12.022Z,16.10
2023-04-29T00:28:13.900Z,16.10
2023-04-29T00:29:15.592Z,16.10
2023-04-29T00:30:17.366Z,16.10
2023-04-29T00:31:19.061Z,16.20
2023-04-29T00:32:21.003Z,16.10
2023-04-29T00:33:22.732Z,16.10
2023-04-29T00:34:24.914Z,16.20
2023-04-29T00:35:27.060Z,16.20
2023-04-29T00:36:29.350Z,16.20
2023-04-29T00:37:31.000Z,16.20
2023-04-29T00:38:33.069Z,16.20
2023-04-29T00:39:35.468Z,16.20
2023-04-29T00:40:37.385Z,16.20
2023-04-29T00:41:39.359Z,16.20
2023-04-29T00:42:41.797Z,16.20
2023-04-29T00:43:43.562Z,16.20
2023-04-29T00:44:45.625Z,16.20
2023-04-29T00:45:47.714Z,16.10
2023-04-29T00:46:49.552Z,16.10
2023-04-29T00:47:51.883Z,16.10
2023-04-29T00:48:53.643Z,16.10
2023-04-29T00:49:55.568Z,16.10
2023-04-29T00:50:57.967Z,16.10
2023-04-29T00:52:00.845Z,16.10
2023-04-29T00:53:02.897Z,16.10
2023-04-29T00:54:05.170Z,16.00
2023-04-29T00:55:09.226Z,16.00
2023-04-29T00:56:11.709Z,16.00
2023-04-29T00:57:14.221Z,16.00
2023-04-29T00:58:17.931Z,16.00
2023-04-29T00:59:20.226Z,16.00
2023-04-29T01:00:22.161Z,16.00
2023-04-29T01:01:24.670Z,16.00
2023-04-29T01:02:27.012Z,16.00
2023-04-29T01:03:30.539Z,16.00
2023-04-29T01:04:32.898Z,16.00
2023-04-29T01:05:34.665Z,16.00
2023-04-29T01:06:51.341Z,16.00
2023-04-29T01:08:21.522Z,16.00
2023-04-29T01:09:55.281Z,16.00
2023-04-29T01:11:12.738Z,16.00
2023-04-29T01:14:17.836Z,16.00
2023-04-29T01:15:30.968Z,16.00
2023-04-29T01:16:45.482Z,16.00
2023-04-29T01:18:12.917Z,15.90
2023-04-29T01:19:27.686Z,15.90
2023-04-29T01:20:32.002Z,15.90
2023-04-29T01:21:46.507Z,15.90
2023-04-29T01:22:48.926Z,15.90
2023-04-29T01:23:56.298Z,15.90
2023-04-29T01:24:58.539Z,15.80
2023-04-29T01:26:00.636Z,15.80
2023-04-29T01:27:23.652Z,15.80
2023-04-29T01:28:37.106Z,15.80
2023-04-29T01:30:11.547Z,15.80
2023-04-29T01:31:13.494Z,15.80
2023-04-29T01:32:22.197Z,15.80
2023-04-29T01:33:44.384Z,15.80
2023-04-29T01:34:58.688Z,15.70
2023-04-29T01:36:25.335Z,15.80
2023-04-29T01:37:38.932Z,15.70
2023-04-29T01:39:03.298Z,15.70
2023-04-29T01:40:17.487Z,15.70
2023-04-29T01:41:28.520Z,15.70
2023-04-29T01:42:39.829Z,15.60
2023-04-29T01:43:42.452Z,15.70
2023-04-29T01:44:44.933Z,15.60
2023-04-29T01:45:47.029Z,15.60
2023-04-29T01:46:54.496Z,15.60
2023-04-29T01:47:57.976Z,15.60
2023-04-29T01:48:59.811Z,15.60
2023-04-29T01:50:02.633Z,15.60
2023-04-29T01:51:06.692Z,15.60
2023-04-29T01:52:08.516Z,15.60
2023-04-29T01:53:10.430Z,15.60
2023-04-29T01:54:12.438Z,15.60
2023-04-29T01:55:14.167Z,15.60
2023-04-29T01:56:17.392Z,15.60
2023-04-29T01:57:19.477Z,15.60
2023-04-29T01:58:21.326Z,15.60
2023-04-29T01:59:23.220Z,15.60
2023-04-29T02:00:25.035Z,15.60
2023-04-29T02:01:26.768Z,15.60
2023-04-29T02:02:28.698Z,15.60
2023-04-29T02:03:30.961Z,15.60
2023-04-29T02:04:34.605Z,15.60
2023-04-29T02:05:36.733Z,15.60
2023-04-29T02:06:38.593Z,15.60
2023-04-29T02:07:40.522Z,15.60
2023-04-29T02:08:42.431Z,15.60
2023-04-29T02:09:44.440Z,15.60
2023-04-29T02:10:53.599Z,15.50
2023-04-29T02:11:55.635Z,15.50
2023-04-29T02:12:57.558Z,15.50
2023-04-29T02:13:59.219Z,15.50
2023-04-29T02:15:01.339Z,15.50
2023-04-29T02:16:13.519Z,15.50
2023-04-29T02:17:15.875Z,15.50
2023-04-29T02:18:17.756Z,15.50
2023-04-29T02:19:19.501Z,15.50
2023-04-29T02:20:21.586Z,15.50
2023-04-29T02:21:23.726Z,15.50
2023-04-29T02:22:25.649Z,15.50
2023-04-29T02:23:27.364Z,15.40
2023-04-29T02:24:29.043Z,15.40
2023-04-29T02:25:30.850Z,15.40
2023-04-29T02:26:34.186Z,15.40
2023-04-29T02:27:36.118Z,15.40
2023-04-29T02:28:37.905Z,15.40
2023-04-29T02:29:39.537Z,15.40
2023-04-29T02:30:41.583Z,15.40
2023-04-29T02:31:43.338Z,15.40
2023-04-29T02:32:45.200Z,15.40
2023-04-29T02:33:47.162Z,15.40
2023-04-29T02:34:52.014Z,15.40
2023-04-29T02:35:53.786Z,15.40
2023-04-29T02:36:55.571Z,15.40
2023-04-29T02:37:57.513Z,15.30
2023-04-29T02:39:00.823Z,15.30
2023-04-29T02:40:03.763Z,15.30
2023-04-29T02:41:05.649Z,15.30
2023-04-29T02:42:07.689Z,15.30
2023-04-29T02:43:10.058Z,15.30
2023-04-29T02:44:12.677Z,15.30
2023-04-29T02:45:14.408Z,15.20
2023-04-29T02:46:16.851Z,15.20
2023-04-29T02:47:18.792Z,15.20
2023-04-29T02:48:20.807Z,15.10
2023-04-29T02:49:22.937Z,15.10
2023-04-29T02:50:25.784Z,15.10
2023-04-29T02:51:28.375Z,15.10
2023-04-29T02:52:30.049Z,15.10
2023-04-29T02:53:31.974Z,15.10
2023-04-29T02:54:33.644Z,15.10
2023-04-29T02:55:35.365Z,15.10
2023-04-29T02:56:39.885Z,15.10
2023-04-29T02:57:41.860Z,15.10
2023-04-29T02:58:43.959Z,15.10
2023-04-29T02:59:46.058Z,15.10
2023-04-29T03:00:47.733Z,15.10
2023-04-29T03:01:49.437Z,15.10
2023-04-29T03:02:51.525Z,15.10
2023-04-29T03:03:54.332Z,15.00
2023-04-29T03:04:56.466Z,15.00
2023-04-29T03:05:58.794Z,15.00
2023-04-29T03:07:00.867Z,15.00
2023-04-29T03:08:04.434Z,15.00
2023-04-29T03:09:06.138Z,14.90
2023-04-29T03:10:09.309Z,14.90
2023-04-29T03:11:11.273Z,14.90
2023-04-29T03:12:13.293Z,14.90
2023-04-29T03:13:15.122Z,14.80
2023-04-29T03:14:17.386Z,14.80
2023-04-29T03:15:20.271Z,14.80
2023-04-29T03:16:25.779Z,14.80
2023-04-29T03:17:27.945Z,14.80
2023-04-29T03:18:29.785Z,14.80
2023-04-29T03:19:31.839Z,14.80
2023-04-29T03:20:33.718Z,14.80
2023-04-29T03:21:36.908Z,14.80
2023-04-29T03:22:38.603Z,14.80
2023-04-29T03:23:40.456Z,14.70
2023-04-29T03:24:42.557Z,14.70
2023-04-29T03:25:44.533Z,14.70
2023-04-29T03:26:46.388Z,14.60
2023-04-29T03:27:48.023Z,14.60
2023-04-29T03:28:50.197Z,14.60
2023-04-29T03:29:52.326Z,14.60
2023-04-29T03:30:54.205Z,14.60
2023-04-29T03:31:57.062Z,14.60
2023-04-29T03:32:58.853Z,14.60
2023-04-29T03:34:01.067Z,14.60
2023-04-29T03:35:02.700Z,14.60
2023-04-29T03:36:05.640Z,14.60
2023-04-29T03:37:07.356Z,14.60
2023-04-29T03:38:09.357Z,14.60
2023-04-29T03:39:12.637Z,14.60
2023-04-29T03:40:14.387Z,14.60
2023-04-29T03:41:16.553Z,14.50
2023-04-29T03:42:18.603Z,14.50
2023-04-29T03:43:20.334Z,14.40
2023-04-29T03:44:22.068Z,14.40
2023-04-29T03:45:25.261Z,14.50
2023-04-29T03:46:27.539Z,14.40
2023-04-29T03:47:29.480Z,14.40
2023-04-29T03:48:31.560Z,14.40
2023-04-29T03:49:33.363Z,14.40
2023-04-29T03:50:37.352Z,14.40
2023-04-29T03:51:38.997Z,14.40
2023-04-29T03:52:40.915Z,14.40
2023-04-29T03:53:42.923Z,14.40
2023-04-29T03:54:44.759Z,14.40
2023-04-29T03:55:46.669Z,14.40
2023-04-29T03:56:48.470Z,14.40
2023-04-29T03:57:50.165Z,14.40
2023-04-29T03:58:53.302Z,14.40
2023-04-29T03:59:55.112Z,14.40
2023-04-29T04:00:57.051Z,14.40
2023-04-29T04:01:59.209Z,14.30
2023-04-29T04:03:04.454Z,14.30
2023-04-29T04:04:07.578Z,14.30
2023-04-29T04:05:11.230Z,14.30
2023-04-29T04:06:13.425Z,14.30
2023-04-29T04:07:15.453Z,14.20
2023-04-29T04:08:17.478Z,14.20
2023-04-29T04:09:19.494Z,14.30
2023-04-29T04:10:21.418Z,14.20
2023-04-29T04:11:23.359Z,14.20
2023-04-29T04:12:25.307Z,14.30
2023-04-29T04:13:27.311Z,14.30
2023-04-29T04:14:29.712Z,14.20
2023-04-29T04:15:31.837Z,14.20
2023-04-29T04:16:34.607Z,14.20
2023-04-29T04:17:36.522Z,14.30
2023-04-29T04:18:38.895Z,14.20
2023-04-29T04:19:40.703Z,14.20
2023-04-29T04:20:42.456Z,14.10
2023-04-29T04:21:44.317Z,14.10
2023-04-29T04:22:46.105Z,14.10
2023-04-29T04:23:47.963Z,14.10
2023-04-29T04:24:50.116Z,14.10
2023-04-29T04:25:53.388Z,14.00
2023-04-29T04:26:55.126Z,14.00
2023-04-29T04:27:57.115Z,14.00
2023-04-29T04:29:01.012Z,14.00
2023-04-29T04:30:02.714Z,14.10
2023-04-29T04:31:05.679Z,14.10
2023-04-29T04:32:07.530Z,14.10
2023-04-29T04:33:10.804Z,14.10
2023-04-29T04:34:12.630Z,14.10
2023-04-29T04:35:14.484Z,14.10
2023-04-29T04:36:16.388Z,14.10
2023-04-29T04:37:18.249Z,14.10
2023-04-29T04:38:20.020Z,14.00
2023-04-29T04:39:21.927Z,14.00
2023-04-29T04:40:26.643Z,14.00
2023-04-29T04:41:31.580Z,14.00
2023-04-29T04:42:33.445Z,14.00
2023-04-29T04:43:35.168Z,14.00
2023-04-29T04:44:37.770Z,14.00
2023-04-29T04:45:39.951Z,14.00
2023-04-29T04:46:43.816Z,14.00
2023-04-29T04:47:45.761Z,14.00
2023-04-29T04:48:47.652Z,14.00
2023-04-29T04:49:53.485Z,14.00
2023-04-29T04:50:55.528Z,14.00
2023-04-29T04:51:57.596Z,14.00
2023-04-29T04:52:59.610Z,14.00
2023-04-29T04:54:01.468Z,14.00
2023-04-29T04:55:03.491Z,14.00
2023-04-29T04:56:06.537Z,14.00
2023-04-29T04:57:08.954Z,14.00
2023-04-29T04:58:10.786Z,14.10
2023-04-29T04:59:12.496Z,14.00
2023-04-29T05:00:15.195Z,14.00
2023-04-29T05:01:16.991Z,14.10
2023-04-29T05:02:18.948Z,14.00
2023-04-29T05:03:20.952Z,14.10
2023-04-29T05:04:22.971Z,14.10
2023-04-29T05:05:24.763Z,14.10
2023-04-29T05:06:26.860Z,14.10
2023-04-29T05:07:28.600Z,14.00
2023-04-29T05:08:30.457Z,14.10
2023-04-29T05:09:32.658Z,14.10
2023-04-29T05:10:37.050Z,14.10
2023-04-29T05:11:38.881Z,14.10
2023-04-29T05:12:40.629Z,14.00
2023-04-29T05:13:42.345Z,14.10
2023-04-29T05:14:44.479Z,14.10
2023-04-29T05:15:46.368Z,14.10
2023-04-29T05:16:48.144Z,14.20
2023-04-29T05:17:50.098Z,14.10
2023-04-29T05:18:51.992Z,14.10
2023-04-29T05:19:54.138Z,14.10
2023-04-29T05:20:55.954Z,14.30
2023-04-29T05:21:57.717Z,14.10
2023-04-29T05:22:59.795Z,14.10
2023-04-29T05:24:01.573Z,14.10
2023-04-29T05:25:03.868Z,14.00
2023-04-29T05:26:05.724Z,14.10
2023-04-29T05:27:07.449Z,14.20
2023-04-29T05:28:09.156Z,14.20
2023-04-29T05:29:11.528Z,14.20
2023-04-29T05:30:13.350Z,14.20
2023-04-29T05:31:15.120Z,14.20
2023-04-29T05:32:16.932Z,14.20
2023-04-29T05:33:18.964Z,14.20
2023-04-29T05:34:21.151Z,14.20
2023-04-29T05:35:22.982Z,14.20
2023-04-29T05:36:24.628Z,14.30
2023-04-29T05:37:30.807Z,14.30
2023-04-29T05:38:32.937Z,14.30
2023-04-29T05:39:34.780Z,14.30
2023-04-29T05:40:36.648Z,14.30
2023-04-29T05:41:38.443Z,14.40
2023-04-29T05:42:40.152Z,14.40
2023-04-29T05:43:41.944Z,14.50
2023-04-29T05:44:43.644Z,14.50
2023-04-29T05:45:47.290Z,14.60
2023-04-29T05:46:48.974Z,14.80
2023-04-29T05:47:50.944Z,14.90
2023-04-29T05:48:53.020Z,15.00
2023-04-29T05:49:54.974Z,15.10
2023-04-29T05:50:56.949Z,15.20
2023-04-29T05:52:04.324Z,15.30
2023-04-29T05:53:06.073Z,15.30
2023-04-29T05:54:07.738Z,15.30
2023-04-29T05:55:09.794Z,15.30
2023-04-29T05:56:11.626Z,15.30
2023-04-29T05:57:13.321Z,15.30
2023-04-29T05:58:15.133Z,15.40
2023-04-29T05:59:16.824Z,15.40
2023-04-29T06:00:18.849Z,15.40
2023-04-29T06:01:20.575Z,15.40
2023-04-29T06:02:22.748Z,15.50
2023-04-29T06:03:25.009Z,15.50
2023-04-29T06:04:27.458Z,15.50
2023-04-29T06:05:29.994Z,15.60
2023-04-29T06:06:32.531Z,15.60
2023-04-29T06:07:34.627Z,15.60
2023-04-29T06:08:36.781Z,15.70
2023-04-29T06:09:39.094Z,15.70
2023-04-29T06:10:41.300Z,15.70
2023-04-29T06:11:44.382Z,15.80
2023-04-29T06:12:46.914Z,15.80
2023-04-29T06:13:48.729Z,15.80
2023-04-29T06:14:50.462Z,15.90
2023-04-29T06:15:52.223Z,16.00
2023-04-29T06:16:54.084Z,16.10
2023-04-29T06:17:55.887Z,16.00
2023-04-29T06:18:57.726Z,16.00
2023-04-29T06:19:59.452Z,16.10
2023-04-29T06:21:01.180Z,16.10
2023-04-29T06:22:02.903Z,16.10
2023-04-29T06:23:05.995Z,16.10
2023-04-29T06:24:08.134Z,16.10
2023-04-29T06:25:09.968Z,16.10
2023-04-29T06:26:11.697Z,16.10
2023-04-29T06:27:13.456Z,16.10
2023-04-29T06:28:16.146Z,16.10
2023-04-29T06:29:17.954Z,16.10
2023-04-29T06:30:19.728Z,16.10
2023-04-29T06:31:23.065Z,16.10
2023-04-29T06:32:25.068Z,16.10
2023-04-29T06:33:27.242Z,16.20
2023-04-29T06:34:28.909Z,16.20
2023-04-29T06:35:31.014Z,16.20
2023-04-29T06:36:33.167Z,16.20
2023-04-29T06:37:37.073Z,16.20
2023-04-29T06:38:39.848Z,16.20
2023-04-29T06:39:41.584Z,16.30
2023-04-29T06:40:43.524Z,16.30
2023-04-29T06:41:45.444Z,16.30
2023-04-29T06:42:47.827Z,16.30
2023-04-29T06:43:49.565Z,16.30
2023-04-29T06:44:51.311Z,16.30
2023-04-29T06:45:53.218Z,16.30
2023-04-29T06:46:55.050Z,16.30
2023-04-29T06:47:57.009Z,16.30
2023-04-29T06:48:59.029Z,16.30
2023-04-29T06:50:01.225Z,16.30
2023-04-29T06:51:03.200Z,16.30
2023-04-29T06:52:05.172Z,16.40
2023-04-29T06:53:06.994Z,16.40
2023-04-29T06:54:08.813Z,16.40
2023-04-29T06:55:11.416Z,16.40
2023-04-29T06:56:14.152Z,16.40
2023-04-29T06:57:17.357Z,16.40
2023-04-29T06:58:19.803Z,16.50
2023-04-29T06:59:21.639Z,16.40
2023-04-29T07:00:23.333Z,16.40
2023-04-29T07:01:25.397Z,16.50
2023-04-29T07:02:27.374Z,16.40
2023-04-29T07:03:29.192Z,16.30
2023-04-29T07:04:31.108Z,16.30
2023-04-29T07:05:33.112Z,16.30
2023-04-29T07:06:34.835Z,16.20
2023-04-29T07:07:36.572Z,16.20
2023-04-29T07:08:38.667Z,16.10
2023-04-29T07:09:40.548Z,16.20
2023-04-29T07:10:42.484Z,16.20
2023-04-29T07:11:44.127Z,16.20
2023-04-29T07:12:45.976Z,16.30
2023-04-29T07:13:48.042Z,16.30
2023-04-29T07:14:49.712Z,16.40
2023-04-29T07:15:52.310Z,16.40
2023-04-29T07:16:55.409Z,16.30
2023-04-29T07:17:57.519Z,16.40
2023-04-29T07:18:59.804Z,16.40
2023-04-29T07:20:01.595Z,16.40
2023-04-29T07:21:03.404Z,16.40
2023-04-29T07:22:05.207Z,16.50
2023-04-29T07:23:07.265Z,16.50
2023-04-29T07:24:09.035Z,16.50
2023-04-29T07:25:11.279Z,16.50
2023-04-29T07:26:15.057Z,16.50
2023-04-29T07:27:16.997Z,16.70
2023-04-29T07:28:18.845Z,16.50
2023-04-29T07:29:20.851Z,16.50
2023-04-29T07:30:23.428Z,16.40
2023-04-29T07:31:25.188Z,16.40
2023-04-29T07:32:27.343Z,16.40
2023-04-29T07:33:29.491Z,16.30
2023-04-29T07:34:31.240Z,16.30
2023-04-29T07:35:33.246Z,16.20
2023-04-29T07:36:35.601Z,16.20
2023-04-29T07:37:37.291Z,16.10
2023-04-29T07:38:39.120Z,16.10
2023-04-29T07:39:42.646Z,16.10
2023-04-29T07:40:45.355Z,16.10
2023-04-29T07:41:46.995Z,16.10
2023-04-29T07:42:48.869Z,16.10
2023-04-29T07:43:50.506Z,16.10
2023-04-29T07:44:52.396Z,16.10
2023-04-29T07:45:54.297Z,16.10
2023-04-29T07:46:56.341Z,16.10
2023-04-29T07:47:58.030Z,16.10
2023-04-29T07:48:59.880Z,16.20
2023-04-29T07:50:01.722Z,16.30
2023-04-29T07:51:04.287Z,16.20
2023-04-29T07:52:06.340Z,16.30
2023-04-29T07:53:08.794Z,16.30
2023-04-29T07:54:10.711Z,16.30
2023-04-29T07:55:12.518Z,16.30
2023-04-29T07:56:14.316Z,16.30
2023-04-29T07:57:16.388Z,16.30
2023-04-29T07:58:18.076Z,16.40
2023-04-29T07:59:19.748Z,16.40
2023-04-29T08:00:21.994Z,16.40
2023-04-29T08:01:24.703Z,16.40
2023-04-29T08:02:26.521Z,16.50
2023-04-29T08:03:28.412Z,16.50
2023-04-29T08:04:30.715Z,16.50
2023-04-29T08:05:32.887Z,16.50
2023-04-29T08:06:35.879Z,16.50
2023-04-29T08:07:37.573Z,16.50
2023-04-29T08:08:39.465Z,16.40
2023-04-29T08:09:41.168Z,16.40
2023-04-29T08:10:43.977Z,16.40
2023-04-29T08:11:45.812Z,16.40
2023-04-29T08:12:48.074Z,16.40
2023-04-29T08:13:49.975Z,16.40
2023-04-29T08:14:51.795Z,16.40
2023-04-29T08:15:54.201Z,16.40
2023-04-29T08:16:56.072Z,16.40
2023-04-29T08:17:57.798Z,16.50
2023-04-29T08:18:59.496Z,16.50
2023-04-29T08:20:01.510Z,16.60
2023-04-29T08:21:03.761Z,16.60
2023-04-29T08:22:06.039Z,16.60
2023-04-29T08:23:07.887Z,16.60
2023-04-29T08:24:09.699Z,16.60
2023-04-29T08:25:11.499Z,16.60
2023-04-29T08:26:13.180Z,16.60
2023-04-29T08:27:15.465Z,16.60
2023-04-29T08:28:17.539Z,16.60
2023-04-29T08:29:19.234Z,16.70
2023-04-29T08:30:21.067Z,16.60
2023-04-29T08:31:23.190Z,16.60
2023-04-29T08:32:25.004Z,16.60
2023-04-29T08:33:26.885Z,16.60
2023-04-29T08:34:29.393Z,16.60
2023-04-29T08:35:31.384Z,16.60
2023-04-29T08:36:33.760Z,16.60
2023-04-29T08:37:35.461Z,16.60
2023-04-29T08:38:37.213Z,16.60
2023-04-29T08:39:38.861Z,16.60
2023-04-29T08:40:47.743Z,16.70
2023-04-29T08:41:51.457Z,16.70
2023-04-29T08:42:54.471Z,16.80
2023-04-29T08:43:56.270Z,16.80
2023-04-29T08:45:00.040Z,16.80
2023-04-29T08:46:03.380Z,16.90
2023-04-29T08:47:05.731Z,16.90
2023-04-29T08:48:08.118Z,16.90
2023-04-29T08:49:10.308Z,16.90
2023-04-29T08:50:13.459Z,17.00
2023-04-29T08:51:15.256Z,17.00
2023-04-29T08:52:18.509Z,17.00
2023-04-29T08:53:20.905Z,17.10
2023-04-29T08:54:22.724Z,17.00
2023-04-29T08:55:24.704Z,17.10
2023-04-29T08:56:28.157Z,17.20
2023-04-29T08:57:31.236Z,17.10
2023-04-29T08:58:36.212Z,17.10
2023-04-29T08:59:38.545Z,17.20
2023-04-29T09:00:42.668Z,17.20
2023-04-29T09:01:50.420Z,17.10
2023-04-29T09:02:55.934Z,17.10
2023-04-29T09:04:10.201Z,17.10
2023-04-29T09:05:12.300Z,17.20
2023-04-29T09:06:15.150Z,17.20
2023-04-29T09:07:17.612Z,17.20
2023-04-29T09:08:21.230Z,17.20
2023-04-29T09:09:24.606Z,17.20
2023-04-29T09:10:26.924Z,17.20
2023-04-29T09:11:29.908Z,17.20
2023-04-29T09:12:31.928Z,17.20
2023-04-29T09:13:34.079Z,17.20
2023-04-29T09:14:37.152Z,17.20
2023-04-29T09:15:42.101Z,17.30
2023-04-29T09:16:47.929Z,17.30
2023-04-29T09:17:49.897Z,17.30
2023-04-29T09:18:52.232Z,17.30
2023-04-29T09:19:56.992Z,17.30
2023-04-29T09:20:58.647Z,17.30
2023-04-29T09:22:01.740Z,17.30
2023-04-29T09:23:04.640Z,17.30
2023-04-29T09:24:06.293Z,17.30
2023-04-29T09:25:14.565Z,17.30
2023-04-29T09:26:16.883Z,17.30
2023-04-29T09:27:29.261Z,17.30
2023-04-29T09:28:31.086Z,17.40
2023-04-29T09:29:34.086Z,17.40
2023-04-29T09:30:47.279Z,17.50
2023-04-29T09:31:49.731Z,17.50
2023-04-29T09:33:10.166Z,17.50
2023-04-29T09:34:13.020Z,17.60
2023-04-29T09:35:32.629Z,17.60
2023-04-29T09:36:46.307Z,17.70
2023-04-29T09:37:48.133Z,17.70
2023-04-29T09:38:55.913Z,17.70
2023-04-29T09:39:57.549Z,17.70
2023-04-29T09:41:00.889Z,17.70
2023-04-29T09:42:04.488Z,17.70
2023-04-29T09:43:16.278Z,17.70
2023-04-29T09:44:39.196Z,17.60
2023-04-29T09:45:50.110Z,17.60
2023-04-29T09:46:59.965Z,17.70
2023-04-29T09:48:03.936Z,17.70
2023-04-29T09:49:26.117Z,17.70
2023-04-29T09:50:28.745Z,17.80
2023-04-29T09:51:32.771Z,17.80
2023-04-29T09:52:42.285Z,17.80
2023-04-29T09:53:45.245Z,17.80
2023-04-29T09:54:47.009Z,17.90
2023-04-29T09:55:54.413Z,17.90
2023-04-29T09:56:58.204Z,18.00
2023-04-29T09:58:00.761Z,18.00
2023-04-29T09:59:09.636Z,18.10
2023-04-29T10:00:13.432Z,18.00
2023-04-29T10:01:19.596Z,18.00
2023-04-29T10:02:23.621Z,18.00
2023-04-29T10:03:27.174Z,18.00
2023-04-29T10:04:29.737Z,18.00
2023-04-29T10:05:31.824Z,18.00
2023-04-29T10:06:33.510Z,17.90
2023-04-29T10:07:35.589Z,17.90
2023-04-29T10:08:37.908Z,18.00
2023-04-29T10:09:40.300Z,18.00
2023-04-29T10:10:42.286Z,18.10
2023-04-29T10:11:51.766Z,18.10
2023-04-29T10:12:55.034Z,18.10
2023-04-29T10:13:58.898Z,18.00
2023-04-29T10:15:18.845Z,17.80
2023-04-29T10:16:29.373Z,17.80
2023-04-29T10:17:45.982Z,17.80
2023-04-29T10:18:55.548Z,17.70
2023-04-29T10:20:05.693Z,17.70
2023-04-29T10:21:11.837Z,17.70
2023-04-29T10:22:56.504Z,17.80
2023-04-29T10:23:59.747Z,17.90
2023-04-29T10:25:02.927Z,17.90
2023-04-29T10:26:07.360Z,18.00
2023-04-29T10:27:12.333Z,18.10
2023-04-29T10:28:17.014Z,18.20
2023-04-29T10:29:20.723Z,18.20
2023-04-29T10:30:22.736Z,18.30
2023-04-29T10:31:28.014Z,18.30
2023-04-29T10:32:39.925Z,18.30
2023-04-29T10:33:47.179Z,18.40
2023-04-29T10:34:50.686Z,18.50
2023-04-29T10:35:53.740Z,18.40
2023-04-29T10:36:55.840Z,18.40
2023-04-29T10:38:01.832Z,18.50
2023-04-29T10:39:06.221Z,18.60
2023-04-29T10:40:13.357Z,18.60
2023-04-29T10:41:27.176Z,18.50
2023-04-29T10:42:43.820Z,18.60
2023-04-29T10:43:46.623Z,18.70
2023-04-29T10:45:39.963Z,18.70
2023-04-29T10:46:41.777Z,18.70
2023-04-29T10:48:05.932Z,18.70
2023-04-29T10:49:11.344Z,18.90
2023-04-29T10:50:13.080Z,18.70
2023-04-29T10:51:35.460Z,18.70
2023-04-29T10:52:53.351Z,18.70
2023-04-29T10:54:08.577Z,18.70
2023-04-29T10:55:12.322Z,18.70
2023-04-29T10:56:13.951Z,18.70
2023-04-29T10:57:22.011Z,18.70
2023-04-29T10:58:37.004Z,18.80
2023-04-29T10:59:38.782Z,18.60
2023-04-29T11:00:40.489Z,18.80
2023-04-29T11:01:43.398Z,18.80
2023-04-29T11:02:45.225Z,18.90
2023-04-29T11:03:55.486Z,18.90
2023-04-29T11:05:09.122Z,18.90
2023-04-29T11:06:11.980Z,18.90
2023-04-29T11:07:28.433Z,19.00
2023-04-29T11:08:30.136Z,19.00
2023-04-29T11:09:35.340Z,19.00
2023-04-29T11:10:39.102Z,18.90
2023-04-29T11:12:03.471Z,19.00
2023-04-29T11:13:24.594Z,19.00
2023-04-29T11:14:38.798Z,19.00
2023-04-29T11:16:59.508Z,18.90
2023-04-29T11:18:02.619Z,18.90
2023-04-29T11:19:09.112Z,18.80
2023-04-29T11:20:14.341Z,18.80
2023-04-29T11:21:16.191Z,18.80
2023-04-29T11:22:26.858Z,18.90
2023-04-29T11:23:28.649Z,18.90
2023-04-29T11:24:30.427Z,19.00
2023-04-29T11:25:32.098Z,19.10
2023-04-29T11:26:37.121Z,19.10
2023-04-29T11:27:42.422Z,19.20
2023-04-29T11:28:45.106Z,19.20
2023-04-29T11:29:50.116Z,19.20
2023-04-29T11:30:52.163Z,19.40
2023-04-29T11:32:01.975Z,19.20
2023-04-29T11:33:03.958Z,19.10
2023-04-29T11:34:06.378Z,19.30
2023-04-29T11:35:12.920Z,19.30
2023-04-29T11:36:15.256Z,19.30
2023-04-29T11:37:24.359Z,19.10
2023-04-29T11:38:27.309Z,19.10
2023-04-29T11:39:29.267Z,19.10
2023-04-29T11:40:32.840Z,19.10
2023-04-29T11:41:35.825Z,19.10
2023-04-29T11:42:49.096Z,19.10
2023-04-29T11:43:59.018Z,19.10
2023-04-29T11:45:00.879Z,19.10
2023-04-29T11:46:02.891Z,19.20
2023-04-29T11:47:07.934Z,19.20
2023-04-29T11:48:09.736Z,19.30
2023-04-29T11:49:11.474Z,19.30
2023-04-29T11:50:16.730Z,19.30
2023-04-29T11:51:19.824Z,19.30
2023-04-29T11:52:21.538Z,19.30
2023-04-29T11:53:25.439Z,19.30
2023-04-29T11:54:28.212Z,19.30
2023-04-29T11:55:30.360Z,19.30
2023-04-29T11:56:32.024Z,19.20
2023-04-29T11:57:33.755Z,19.30
2023-04-29T11:58:35.672Z,19.30
2023-04-29T11:59:37.520Z,19.30
2023-04-29T12:00:39.340Z,19.30
2023-04-29T12:01:42.540Z,19.30
2023-04-29T12:02:50.625Z,19.30
2023-04-29T12:03:59.336Z,19.30
2023-04-29T12:05:07.618Z,19.30
2023-04-29T12:06:09.441Z,19.40
2023-04-29T12:07:11.080Z,19.40
2023-04-29T12:08:12.798Z,19.40
2023-04-29T12:09:15.982Z,19.50
2023-04-29T12:10:18.143Z,19.60
2023-04-29T12:11:20.850Z,19.60
2023-04-29T12:12:22.723Z,19.70
2023-04-29T12:13:31.359Z,19.70
2023-04-29T12:14:33.306Z,19.80
2023-04-29T12:15:35.723Z,19.80
2023-04-29T12:16:38.364Z,19.90
2023-04-29T12:17:42.324Z,20.00
2023-04-29T12:18:44.643Z,20.10
2023-04-29T12:19:46.821Z,20.00
2023-04-29T12:20:48.818Z,20.10
2023-04-29T12:21:50.493Z,20.10
2023-04-29T12:22:53.247Z,20.20
2023-04-29T12:23:58.470Z,20.20
2023-04-29T12:25:00.208Z,20.30
2023-04-29T12:26:02.824Z,20.30
2023-04-29T12:27:07.846Z,20.30
2023-04-29T12:28:17.086Z,20.30
2023-04-29T12:29:22.717Z,20.50
2023-04-29T12:30:25.197Z,20.50
2023-04-29T12:31:34.874Z,20.20
2023-04-29T12:32:37.680Z,20.30
2023-04-29T12:33:44.597Z,20.00
2023-04-29T12:34:47.564Z,19.90
2023-04-29T12:35:54.299Z,20.00
2023-04-29T12:36:58.594Z,19.90
2023-04-29T12:38:00.650Z,19.90
2023-04-29T12:39:02.346Z,19.80
2023-04-29T12:40:04.562Z,19.90
2023-04-29T12:41:07.851Z,19.90
2023-04-29T12:42:18.123Z,19.80
2023-04-29T12:43:20.416Z,19.90
2023-04-29T12:44:22.263Z,19.90
2023-04-29T12:45:32.289Z,19.80
2023-04-29T12:46:41.589Z,19.80
2023-04-29T12:47:44.786Z,19.70
2023-04-29T12:48:47.435Z,19.70
2023-04-29T12:49:50.103Z,19.70
2023-04-29T12:50:52.468Z,19.60
2023-04-29T12:51:54.177Z,19.70
2023-04-29T12:52:56.467Z,19.60
2023-04-29T12:53:59.872Z,19.60
2023-04-29T12:55:01.555Z,19.80
2023-04-29T12:56:03.490Z,19.80
2023-04-29T12:57:05.929Z,19.80
2023-04-29T12:58:09.380Z,19.90
2023-04-29T12:59:12.275Z,19.90
2023-04-29T13:00:15.150Z,20.00
2023-04-29T13:01:18.652Z,19.90
2023-04-29T13:02:20.760Z,19.80
2023-04-29T13:03:22.925Z,19.80
2023-04-29T13:04:25.268Z,19.80
2023-04-29T13:05:27.225Z,19.80
2023-04-29T13:06:29.246Z,19.80
2023-04-29T13:07:31.269Z,19.80
2023-04-29T13:08:32.992Z,19.80
2023-04-29T13:09:35.630Z,19.90
2023-04-29T13:10:37.491Z,20.00
2023-04-29T13:11:39.718Z,20.10
2023-04-29T13:12:41.375Z,20.20
2023-04-29T13:13:43.202Z,20.50
2023-04-29T13:14:45.225Z,20.50
2023-04-29T13:15:47.508Z,20.60
2023-04-29T13:16:49.410Z,20.60
2023-04-29T13:17:51.880Z,20.70
2023-04-29T13:19:08.538Z,20.80
2023-04-29T13:20:15.594Z,20.90
2023-04-29T13:21:17.365Z,21.00
2023-04-29T13:22:19.488Z,21.00
2023-04-29T13:23:21.626Z,21.00
2023-04-29T13:24:23.711Z,21.00
2023-04-29T13:25:25.511Z,21.00
2023-04-29T13:26:27.496Z,21.00
2023-04-29T13:27:29.345Z,21.00
2023-04-29T13:28:32.174Z,20.90
2023-04-29T13:29:33.898Z,21.00
2023-04-29T13:30:36.446Z,20.70
2023-04-29T13:31:38.199Z,20.70
2023-04-29T13:32:46.377Z,20.70
2023-04-29T13:33:55.799Z,20.70
2023-04-29T13:34:57.789Z,20.80
2023-04-29T13:35:59.577Z,20.70
2023-04-29T13:37:01.478Z,20.70
2023-04-29T13:38:03.432Z,20.70
2023-04-29T13:39:05.180Z,20.90
2023-04-29T13:40:08.429Z,20.90
2023-04-29T13:41:15.573Z,21.00
2023-04-29T13:42:18.850Z,21.10
2023-04-29T13:43:30.102Z,21.20
2023-04-29T13:44:49.733Z,21.20